Time;durP1;ratioP1;P1;durP2;ratioP2;P2;SDS_P1;SDS_P2;PMS_P1;PMS_P2;Temp;Humidity;BMP_temperature;BMP_pressure;BME280_temperature;BME280_humidity;BME280_pressure;Samples;Min_cycle;Max_cycle;Signal;HPM_P1;HPM_P2
2022/02/14 04:05:41;;;;;;;415.27;103.73;;;;;;;-3.30;100.00;98519.88;5045879;28;20303;-93
2022/02/14 04:08:11;;;;;;;411.55;102.75;;;;;;;-3.29;100.00;98530.75;5049591;28;20314;-94
2022/02/14 04:10:37;;;;;;;411.73;102.07;;;;;;;-3.31;100.00;98532.38;5043476;28;20065;-91
2022/02/14 04:13:03;;;;;;;409.80;100.33;;;;;;;-3.53;100.00;98499.88;5047101;28;20275;-92
2022/02/14 04:15:38;;;;;;;411.17;99.70;;;;;;;-3.53;100.00;98508.25;5049548;28;20342;-90
2022/02/14 04:18:15;;;;;;;408.13;100.50;;;;;;;-3.55;100.00;98517.34;5034217;28;20029;-91
2022/02/14 04:20:41;;;;;;;408.83;99.97;;;;;;;-3.57;100.00;98510.59;5019568;28;20279;-90
2022/02/14 04:23:07;;;;;;;412.13;102.97;;;;;;;-3.55;100.00;98526.50;5024754;28;20045;-90
2022/02/14 04:25:38;;;;;;;410.90;101.37;;;;;;;-3.59;100.00;98525.56;5012683;28;20384;-90
2022/02/14 04:28:07;;;;;;;410.27;101.40;;;;;;;-3.52;100.00;98544.16;5031968;28;20337;-90
2022/02/14 04:30:44;;;;;;;410.27;101.70;;;;;;;-3.75;100.00;98511.66;5027700;28;20755;-91
2022/02/14 04:33:09;;;;;;;407.43;100.43;;;;;;;-3.64;100.00;98533.69;5057083;23;20438;-56
2022/02/14 04:35:35;;;;;;;405.93;99.30;;;;;;;-3.63;100.00;98540.41;5048227;28;20299;-57
2022/02/14 04:38:00;;;;;;;408.33;101.13;;;;;;;-3.63;100.00;98557.97;5049262;28;20079;-56
2022/02/14 04:40:33;;;;;;;409.73;100.93;;;;;;;-3.71;100.00;98537.66;5046265;28;20040;-57
2022/02/14 04:43:00;;;;;;;410.33;100.10;;;;;;;-3.71;100.00;98551.03;5044562;28;20040;-57
2022/02/14 04:45:26;;;;;;;410.20;100.57;;;;;;;-3.76;100.00;98546.66;5046809;28;20279;-57
2022/02/14 04:47:52;;;;;;;412.55;102.07;;;;;;;-3.81;100.00;98536.47;5049530;28;20109;-55
2022/02/14 04:50:17;;;;;;;412.40;102.83;;;;;;;-3.80;100.00;98533.19;5065871;28;20037;-56
2022/02/14 04:52:43;;;;;;;407.80;99.17;;;;;;;-3.84;100.00;98528.00;5067182;28;20685;-56
2022/02/14 04:55:09;;;;;;;409.40;102.73;;;;;;;-3.86;100.00;98522.94;5067523;28;20102;-54
2022/02/14 04:57:35;;;;;;;411.43;101.43;;;;;;;-3.86;100.00;98535.44;5065739;28;20127;-56
2022/02/14 05:00:01;;;;;;;409.85;101.78;;;;;;;-3.96;100.00;98523.41;5065488;28;20352;-56
2022/02/14 05:02:26;;;;;;;406.27;100.63;;;;;;;-3.95;100.00;98535.16;5066792;28;20044;-54
2022/02/14 05:04:51;;;;;;;407.07;100.67;;;;;;;-4.00;100.00;98541.63;5066646;28;20389;-57
2022/02/14 05:07:17;;;;;;;411.77;102.30;;;;;;;-4.04;100.00;98538.97;5046329;28;20032;-56
2022/02/14 05:09:42;;;;;;;410.00;100.23;;;;;;;-4.10;100.00;98532.06;5065190;28;20032;-57
2022/02/14 05:12:08;;;;;;;406.10;99.97;;;;;;;-4.10;100.00;98542.09;5067582;28;20110;-56
2022/02/14 05:14:33;;;;;;;406.07;99.77;;;;;;;-4.16;100.00;98529.38;5068759;28;20047;-54
2022/02/14 05:16:58;;;;;;;403.37;98.73;;;;;;;-4.12;100.00;98542.84;5065809;28;20045;-57
2022/02/14 05:19:24;;;;;;;412.13;100.53;;;;;;;-4.08;100.00;98530.50;5065745;28;20097;-54
2022/02/14 05:21:49;;;;;;;409.63;100.47;;;;;;;-4.05;100.00;98532.25;5068480;28;20040;-55
2022/02/14 05:24:15;;;;;;;406.97;99.73;;;;;;;-4.11;100.00;98540.38;5065683;28;20094;-54
2022/02/14 05:26:41;;;;;;;411.07;101.13;;;;;;;-4.22;100.00;98544.13;5060398;28;20532;-56
2022/02/14 05:29:06;;;;;;;408.90;101.07;;;;;;;-4.23;100.00;98549.94;5061080;28;20098;-57
2022/02/14 05:31:32;;;;;;;411.57;102.37;;;;;;;-4.26;100.00;98542.31;5063877;28;20446;-53
2022/02/14 05:33:57;;;;;;;406.27;99.07;;;;;;;-4.29;100.00;98548.06;5047564;28;20080;-53
2022/02/14 05:36:23;;;;;;;405.10;99.70;;;;;;;-4.36;100.00;98553.63;5041991;28;20039;-55
2022/02/14 05:38:49;;;;;;;405.17;98.87;;;;;;;-4.38;100.00;98547.72;5041415;28;20043;-58
2022/02/14 05:41:15;;;;;;;405.53;100.20;;;;;;;-4.40;100.00;98550.94;5045211;28;20279;-53
2022/02/14 05:43:41;;;;;;;404.13;99.10;;;;;;;-4.44;100.00;98556.63;5043209;28;20029;-56
2022/02/14 05:46:13;;;;;;;405.50;101.32;;;;;;;-4.47;100.00;98549.88;5041678;28;20060;-55
2022/02/14 05:48:41;;;;;;;407.75;101.13;;;;;;;-4.48;100.00;98559.81;5043191;28;20792;-54
2022/02/14 05:51:07;;;;;;;405.90;102.03;;;;;;;-4.42;100.00;98560.06;5044932;28;20474;-56
2022/02/14 05:53:32;;;;;;;405.10;101.30;;;;;;;-4.48;100.00;98558.16;5044018;28;20056;-59
2022/02/14 05:55:58;;;;;;;407.37;100.90;;;;;;;-4.49;100.00;98558.94;5040477;28;20037;-58
2022/02/14 05:58:23;;;;;;;410.20;103.17;;;;;;;-4.52;100.00;98563.84;5044693;28;20045;-55
2022/02/14 06:00:49;;;;;;;405.73;100.83;;;;;;;-4.55;100.00;98565.38;5047500;28;20037;-61
2022/02/14 06:03:14;;;;;;;414.77;105.30;;;;;;;-4.64;100.00;98556.72;5044244;28;20164;-60
2022/02/14 06:05:39;;;;;;;408.93;106.70;;;;;;;-4.60;100.00;98567.69;5042430;28;20037;-61
2022/02/14 06:08:05;;;;;;;409.97;104.13;;;;;;;-4.66;100.00;98568.31;5043784;28;20060;-59
2022/02/14 06:10:30;;;;;;;407.60;99.77;;;;;;;-4.64;100.00;98568.38;5046382;28;20044;-57
2022/02/14 06:12:56;;;;;;;402.33;98.03;;;;;;;-4.68;100.00;98559.03;5046204;28;20048;-59
2022/02/14 06:15:21;;;;;;;408.20;99.43;;;;;;;-4.68;100.00;98562.41;5044400;28;20048;-58
2022/02/14 06:17:46;;;;;;;404.93;101.43;;;;;;;-4.70;100.00;98558.97;5044111;28;20039;-58
2022/02/14 06:20:15;;;;;;;409.07;99.47;;;;;;;-4.64;100.00;98569.22;5045353;28;20474;-58
2022/02/14 06:22:41;;;;;;;404.42;99.82;;;;;;;-4.62;100.00;98569.28;5044304;28;20044;-59
2022/02/14 06:25:07;;;;;;;406.48;101.72;;;;;;;-4.57;100.00;98571.94;5043948;28;20502;-59
2022/02/14 06:27:32;;;;;;;414.27;108.67;;;;;;;-4.49;100.00;98573.97;5042651;28;20083;-59
2022/02/14 06:29:57;;;;;;;415.80;106.80;;;;;;;-4.47;100.00;98574.03;5046170;28;20029;-58
2022/02/14 06:32:23;;;;;;;411.13;102.53;;;;;;;-4.37;100.00;98574.41;5046241;28;20095;-59
2022/02/14 06:34:48;;;;;;;410.00;102.73;;;;;;;-4.37;100.00;98561.09;5041551;28;20045;-58
2022/02/14 06:37:13;;;;;;;406.07;99.93;;;;;;;-4.24;100.00;98565.72;5044051;28;20087;-58
2022/02/14 06:39:39;;;;;;;401.90;96.93;;;;;;;-4.17;100.00;98568.53;5048362;28;20041;-58
2022/02/14 06:42:04;;;;;;;405.97;101.03;;;;;;;-4.09;100.00;98566.31;5050360;28;20052;-59
2022/02/14 06:44:30;;;;;;;404.57;99.33;;;;;;;-4.02;100.00;98568.25;5048065;28;20436;-57
2022/02/14 06:46:56;;;;;;;405.50;100.87;;;;;;;-3.95;100.00;98560.19;5049264;28;20122;-61
2022/02/14 06:49:21;;;;;;;408.48;99.00;;;;;;;-3.85;100.00;98567.22;5049356;28;20033;-57
2022/02/14 06:51:47;;;;;;;406.03;97.67;;;;;;;-3.72;100.00;98566.84;5049248;28;20060;-58
2022/02/14 06:54:12;;;;;;;410.53;101.03;;;;;;;-3.53;100.00;98570.00;5047551;28;20041;-57
2022/02/14 06:56:37;;;;;;;407.07;99.13;;;;;;;-3.30;100.00;98569.13;5049946;28;20037;-58
2022/02/14 06:59:03;;;;;;;406.43;100.47;;;;;;;-3.13;100.00;98573.06;5048024;28;20131;-57
2022/02/14 07:01:28;;;;;;;406.97;101.47;;;;;;;-3.18;100.00;98571.22;5046331;28;20029;-59
2022/02/14 07:03:54;;;;;;;412.23;102.50;;;;;;;-3.11;100.00;98574.00;5049552;28;20780;-59
2022/02/14 07:06:19;;;;;;;409.63;100.37;;;;;;;-2.94;100.00;98577.06;5048569;28;20155;-60
2022/02/14 07:08:44;;;;;;;413.43;102.13;;;;;;;-2.84;100.00;98567.34;5051674;28;20048;-60
2022/02/14 07:11:11;;;;;;;408.00;99.83;;;;;;;-2.69;100.00;98553.59;5045544;28;20033;-61
2022/02/14 07:13:36;;;;;;;409.95;101.22;;;;;;;-2.56;100.00;98553.19;5045022;28;20041;-56
2022/02/14 07:16:01;;;;;;;408.60;100.50;;;;;;;-2.41;100.00;98553.66;5048887;28;20060;-59
2022/02/14 07:18:28;;;;;;;413.10;104.17;;;;;;;-2.28;100.00;98553.22;5049351;28;20471;-59
2022/02/14 07:20:54;;;;;;;414.23;104.15;;;;;;;-2.20;100.00;98559.31;5046597;28;20522;-59
2022/02/14 07:23:20;;;;;;;413.17;102.43;;;;;;;-2.22;100.00;98555.91;5049084;28;20044;-59
2022/02/14 07:25:46;;;;;;;413.03;102.47;;;;;;;-2.06;100.00;98553.03;5048712;28;20040;-56
2022/02/14 07:28:11;;;;;;;418.20;110.03;;;;;;;-1.94;100.00;98545.00;5047215;28;20268;-59
2022/02/14 07:30:37;;;;;;;420.57;106.83;;;;;;;-1.72;100.00;98551.47;5045734;28;20056;-56
2022/02/14 07:33:02;;;;;;;417.80;107.87;;;;;;;-1.57;100.00;98550.22;5047375;28;20053;-57
2022/02/14 07:35:28;;;;;;;420.47;107.60;;;;;;;-1.40;100.00;98548.19;5047557;28;20048;-57
2022/02/14 07:37:53;;;;;;;417.30;107.90;;;;;;;-1.29;100.00;98551.84;5050507;28;20047;-58
2022/02/14 07:40:19;;;;;;;419.57;109.03;;;;;;;-1.19;100.00;98556.28;5049275;28;20037;-60
2022/02/14 07:42:44;;;;;;;418.47;106.23;;;;;;;-1.30;100.00;98551.78;5062244;28;20493;-60
2022/02/14 07:45:10;;;;;;;417.40;107.03;;;;;;;-1.10;100.00;98548.97;5060591;28;20032;-59
2022/02/14 07:47:37;;;;;;;417.57;108.87;;;;;;;-0.94;100.00;98551.06;5055976;28;20041;-59
2022/02/14 07:50:06;;;;;;;418.13;110.07;;;;;;;-1.02;100.00;98551.69;5055807;28;20256;-59
2022/02/14 07:52:35;;;;;;;424.07;111.97;;;;;;;-1.05;100.00;98547.41;5049097;28;20263;-59
2022/02/14 07:55:03;;;;;;;421.70;110.93;;;;;;;-0.79;100.00;98548.06;5046988;28;20282;-59
2022/02/14 07:57:28;;;;;;;421.97;111.03;;;;;;;-0.54;100.00;98544.47;5046286;28;20263;-59
2022/02/14 07:59:54;;;;;;;423.93;113.87;;;;;;;-0.50;100.00;98537.00;5045812;28;20271;-60
2022/02/14 08:02:19;;;;;;;423.03;111.47;;;;;;;-0.32;100.00;98534.06;5054228;28;20069;-59
2022/02/14 08:04:46;;;;;;;430.40;117.63;;;;;;;-0.08;100.00;98539.63;5049456;28;20675;-59
2022/02/14 08:07:11;;;;;;;424.57;114.77;;;;;;;-0.05;100.00;98534.66;5045343;28;20041;-59
2022/02/14 08:09:37;;;;;;;432.03;114.63;;;;;;;0.08;100.00;98538.28;5045379;28;20259;-60
2022/02/14 08:12:06;;;;;;;426.60;117.50;;;;;;;0.13;100.00;98533.34;5046969;28;20047;-60
2022/02/14 08:14:32;;;;;;;427.93;117.77;;;;;;;0.17;100.00;98542.66;5050233;28;20259;-60
2022/02/14 08:16:57;;;;;;;429.43;121.43;;;;;;;0.37;100.00;98544.78;5046618;28;20255;-60
2022/02/14 08:19:22;;;;;;;429.43;121.43;;;;;;;0.50;100.00;98542.47;5042767;28;20802;-58
2022/02/14 08:21:48;;;;;;;432.07;123.43;;;;;;;0.56;100.00;98533.34;5045340;28;20051;-57
2022/02/14 08:24:13;;;;;;;432.03;125.50;;;;;;;0.49;100.00;98526.50;5043352;28;20112;-59
2022/02/14 08:26:39;;;;;;;432.73;123.77;;;;;;;0.58;100.00;98524.16;5042678;28;20128;-56
2022/02/14 08:29:05;;;;;;;431.87;122.63;;;;;;;0.70;100.00;98518.47;5043246;28;20029;-59
2022/02/14 08:31:30;;;;;;;437.17;130.10;;;;;;;0.71;100.00;98523.56;5044317;28;20163;-58
2022/02/14 08:33:59;;;;;;;433.47;125.23;;;;;;;0.58;100.00;98518.25;5042011;28;20048;-57
2022/02/14 08:36:26;;;;;;;434.90;124.60;;;;;;;0.70;100.00;98515.94;5042579;28;20041;-59
2022/02/14 08:38:52;;;;;;;435.30;125.77;;;;;;;0.81;100.00;98506.88;5043263;28;20259;-60
2022/02/14 08:41:19;;;;;;;434.57;127.30;;;;;;;0.93;100.00;98504.59;5044043;28;20268;-59
2022/02/14 08:43:44;;;;;;;437.00;126.43;;;;;;;0.93;100.00;98503.75;5045122;28;20274;-58
2022/02/14 08:46:10;;;;;;;435.30;126.03;;;;;;;1.02;100.00;98496.31;5042458;28;20263;-57
2022/02/14 08:48:35;;;;;;;434.60;124.80;;;;;;;0.95;100.00;98509.66;5044038;28;20767;-59
2022/02/14 08:51:04;;;;;;;435.53;126.27;;;;;;;1.11;100.00;98501.50;5045175;28;20044;-60
2022/02/14 08:53:33;;;;;;;435.17;129.77;;;;;;;1.19;100.00;98498.28;5044783;28;20132;-58
2022/02/14 08:55:59;;;;;;;438.03;131.07;;;;;;;1.32;100.00;98502.69;5042621;28;20283;-59
2022/02/14 08:58:25;;;;;;;438.10;131.83;;;;;;;1.52;100.00;98497.94;5041941;28;20259;-59
2022/02/14 09:00:51;;;;;;;437.20;132.73;;;;;;;1.64;100.00;98498.13;5042153;28;20263;-57
2022/02/14 09:03:16;;;;;;;437.27;131.03;;;;;;;1.56;100.00;98493.78;5043783;28;20726;-58
2022/02/14 09:05:41;;;;;;;440.73;134.70;;;;;;;1.52;100.00;98497.09;5041926;28;20103;-56
2022/02/14 09:08:07;;;;;;;441.47;131.87;;;;;;;1.66;100.00;98488.00;5042049;28;20053;-59
2022/02/14 09:10:35;;;;;;;439.27;133.60;;;;;;;1.80;100.00;98484.84;5045460;28;20455;-59
2022/02/14 09:13:00;;;;;;;444.37;139.83;;;;;;;1.88;100.00;98484.09;5044411;28;20028;-58
2022/02/14 09:15:26;;;;;;;442.23;136.60;;;;;;;2.06;100.00;98475.06;5042915;28;20333;-59
2022/02/14 09:17:52;;;;;;;440.77;136.30;;;;;;;2.14;100.00;98473.47;5045317;28;20036;-58
2022/02/14 09:20:22;;;;;;;444.53;139.57;;;;;;;2.34;100.00;98478.75;5045072;28;20037;-59
2022/02/14 09:22:48;;;;;;;445.77;145.00;;;;;;;2.43;100.00;98476.31;5043774;28;20267;-60
2022/02/14 09:25:14;;;;;;;441.97;140.37;;;;;;;2.36;100.00;98467.00;5041968;28;20267;-60
2022/02/14 09:27:39;;;;;;;445.33;140.03;;;;;;;2.46;100.00;98470.47;5044229;28;20804;-59
2022/02/14 09:30:05;;;;;;;444.73;143.10;;;;;;;2.61;100.00;98474.00;5045682;28;20036;-59
2022/02/14 09:32:31;;;;;;;447.90;150.37;;;;;;;2.72;98.54;98471.53;5048116;28;20056;-60
2022/02/14 09:34:56;;;;;;;446.73;148.13;;;;;;;2.87;98.57;98466.63;5060813;28;20290;-58
2022/02/14 09:37:22;;;;;;;449.30;148.93;;;;;;;3.04;97.53;98476.91;5062154;28;20040;-59
2022/02/14 09:39:48;;;;;;;448.33;151.33;;;;;;;3.10;97.98;98471.88;5061894;28;20032;-60
2022/02/14 09:42:13;;;;;;;448.80;156.63;;;;;;;3.15;97.84;98465.16;5060739;28;20739;-59
2022/02/14 09:44:38;;;;;;;445.50;150.43;;;;;;;3.26;95.28;98480.47;5060324;28;20055;-59
2022/02/14 09:47:05;;;;;;;449.03;151.10;;;;;;;3.17;96.60;98477.03;5064777;28;20036;-60
2022/02/14 09:49:32;;;;;;;451.17;157.80;;;;;;;3.37;95.75;98484.75;5060429;28;20400;-60
2022/02/14 09:51:58;;;;;;;450.67;163.83;;;;;;;3.43;94.16;98471.28;5060241;28;20259;-57
2022/02/14 09:54:25;;;;;;;455.70;171.10;;;;;;;3.51;92.15;98467.97;5060588;28;20263;-58
2022/02/14 09:56:51;;;;;;;455.03;167.30;;;;;;;3.58;91.04;98459.56;5061538;28;20297;-59
2022/02/14 09:59:17;;;;;;;454.77;172.93;;;;;;;3.53;91.13;98458.69;5061168;28;20389;-59
2022/02/14 10:01:45;;;;;;;456.47;173.30;;;;;;;3.63;89.87;98468.03;5060898;28;20259;-57
2022/02/14 10:04:11;;;;;;;452.63;166.07;;;;;;;3.64;91.03;98466.34;5061416;28;20271;-58
2022/02/14 10:06:39;;;;;;;455.17;166.13;;;;;;;3.62;88.83;98470.56;5064883;28;20709;-57
2022/02/14 10:09:05;;;;;;;455.93;170.33;;;;;;;3.51;90.61;98467.13;5063628;28;20052;-60
2022/02/14 10:11:32;;;;;;;453.23;170.67;;;;;;;3.68;90.78;98473.13;5063513;28;20266;-62
2022/02/14 10:14:12;;;;;;;456.33;170.63;;;;;;;3.88;89.03;98473.22;5065814;28;20036;-59
2022/02/14 10:16:38;;;;;;;455.23;168.10;;;;;;;3.80;89.18;98468.13;5068892;28;20839;-59
2022/02/14 10:19:16;;;;;;;455.13;174.57;;;;;;;3.91;88.54;98465.63;5068381;28;20269;-58
2022/02/14 10:21:44;;;;;;;458.57;178.53;;;;;;;3.91;86.98;98461.41;5064918;28;20036;-58
2022/02/14 10:24:13;;;;;;;456.60;178.33;;;;;;;3.72;87.46;98449.50;5066468;28;20908;-58
2022/02/14 10:26:41;;;;;;;459.93;177.40;;;;;;;3.98;86.37;98457.22;5066151;28;20835;-58
2022/02/14 10:29:20;;;;;;;456.37;176.97;;;;;;;4.06;86.40;98456.41;5064228;28;20263;-57
2022/02/14 10:31:48;;;;;;;461.23;181.97;;;;;;;4.24;84.72;98452.25;5065596;28;21082;-57
2022/02/14 10:34:15;;;;;;;460.27;187.83;;;;;;;4.24;84.52;98435.34;5068354;28;20876;-57
2022/02/14 10:36:43;;;;;;;460.90;183.93;;;;;;;4.24;83.52;98440.41;5049818;28;20377;-58
2022/02/14 10:39:16;;;;;;;461.30;183.57;;;;;;;4.31;85.58;98439.59;5066578;28;20307;-58
2022/02/14 10:41:44;;;;;;;464.27;191.33;;;;;;;4.37;84.33;98434.50;5065087;28;20356;-59
2022/02/14 10:44:14;;;;;;;461.57;190.87;;;;;;;4.45;82.77;98425.25;5067998;28;20275;-58
2022/02/14 10:46:41;;;;;;;461.97;189.17;;;;;;;4.27;82.81;98424.34;5068391;28;20353;-58
2022/02/14 10:49:07;;;;;;;461.03;186.67;;;;;;;4.38;82.57;98428.59;5065931;28;20262;-59
2022/02/14 10:51:34;;;;;;;461.67;185.83;;;;;;;4.26;82.94;98423.50;5066760;28;20267;-59
2022/02/14 10:54:02;;;;;;;462.57;190.10;;;;;;;4.41;82.40;98413.38;5069217;28;20275;-57
2022/02/14 10:56:38;;;;;;;460.30;194.60;;;;;;;4.54;81.63;98412.53;5068527;28;20282;-59
2022/02/14 10:59:16;;;;;;;461.17;191.73;;;;;;;4.64;80.09;98412.56;5067476;28;20314;-58
2022/02/14 11:01:42;;;;;;;461.70;200.20;;;;;;;4.64;79.57;98412.56;5075210;28;20279;-58
2022/02/14 11:04:08;;;;;;;461.77;190.63;;;;;;;4.69;79.07;98414.25;5074598;28;20287;-58
2022/02/14 11:06:36;;;;;;;462.40;192.43;;;;;;;4.33;80.24;98409.97;5065985;28;20118;-58
2022/02/14 11:09:03;;;;;;;461.47;194.30;;;;;;;4.55;81.59;98405.78;5065397;28;20074;-60
2022/02/14 11:11:32;;;;;;;463.30;194.87;;;;;;;4.67;80.61;98404.97;5066344;28;20265;-58
2022/02/14 11:13:59;;;;;;;463.60;194.30;;;;;;;4.77;79.91;98392.25;5066653;28;20255;-58
2022/02/14 11:16:27;;;;;;;461.93;201.07;;;;;;;4.69;79.17;98395.63;5066014;28;20382;-57
2022/02/14 11:18:55;;;;;;;461.17;193.53;;;;;;;4.82;78.54;98392.25;5063516;28;20263;-58
2022/02/14 11:21:20;;;;;;;465.20;206.70;;;;;;;5.00;77.88;98392.25;5065693;28;20255;-59
2022/02/14 11:23:56;;;;;;;466.17;203.93;;;;;;;5.01;77.26;98382.06;5067285;28;20259;-57
2022/02/14 11:26:36;;;;;;;465.03;201.40;;;;;;;5.00;76.55;98380.41;5065033;28;20417;-58
2022/02/14 11:29:38;;;;;;;468.07;208.23;;;;;;;5.14;76.01;98380.38;5063593;28;20676;-55
2022/02/14 11:32:26;;;;;;;466.10;204.30;;;;;;;5.29;74.23;98377.81;5066944;28;20795;-60
2022/02/14 11:35:14;;;;;;;464.77;206.27;;;;;;;5.28;74.41;98371.03;5065600;28;20663;-58
2022/02/14 11:37:58;;;;;;;467.57;206.60;;;;;;;5.36;74.50;98358.28;5064362;28;20290;-60
2022/02/14 11:40:26;;;;;;;465.43;212.90;;;;;;;5.36;74.12;98364.22;5067799;28;20370;-60
2022/02/14 11:43:22;;;;;;;467.47;211.87;;;;;;;5.46;73.00;98355.75;5067481;28;20269;-59
2022/02/14 11:46:18;;;;;;;467.10;212.70;;;;;;;5.62;71.90;98363.31;5055902;28;20286;-60
2022/02/14 11:48:44;;;;;;;467.10;212.85;;;;;;;5.38;71.61;98352.38;5065812;28;20039;-60
2022/02/14 11:51:14;;;;;;;465.13;210.87;;;;;;;5.47;71.93;98351.50;5067253;28;20033;-60
2022/02/14 11:53:45;;;;;;;467.33;215.53;;;;;;;5.52;70.99;98343.00;5065986;28;20324;-58
2022/02/14 11:56:22;;;;;;;471.50;225.87;;;;;;;5.64;70.86;98338.72;5063746;28;20309;-58
2022/02/14 11:59:08;;;;;;;469.27;216.10;;;;;;;5.54;70.84;98343.00;5066156;28;21091;-59
2022/02/14 12:01:45;;;;;;;468.55;217.48;;;;;;;5.44;71.12;98323.53;5067304;28;20266;-59
2022/02/14 12:04:32;;;;;;;469.63;219.23;;;;;;;5.73;71.03;98331.06;5064719;28;20135;-58
2022/02/14 12:07:15;;;;;;;469.60;221.20;;;;;;;5.63;71.25;98319.22;5064473;28;20274;-60
2022/02/14 12:09:56;;;;;;;474.47;233.47;;;;;;;5.91;70.70;98321.66;5066193;28;20263;-58
2022/02/14 12:12:43;;;;;;;469.03;221.70;;;;;;;5.96;68.67;98321.63;5065348;28;20328;-59
2022/02/14 12:20:38;;;;;;;473.00;231.67;;;;;;;5.74;69.41;98307.28;5067233;28;20255;-60
2022/02/14 12:23:05;;;;;;;469.93;229.57;;;;;;;5.85;68.70;98300.47;5062988;28;21139;-59
2022/02/14 12:25:30;;;;;;;470.33;228.27;;;;;;;6.02;67.13;98291.06;5063228;28;20724;-59
2022/02/14 12:27:57;;;;;;;472.60;239.67;;;;;;;6.17;66.32;98292.66;5066039;28;20267;-57
2022/02/14 12:30:23;;;;;;;472.33;245.80;;;;;;;6.23;65.78;98285.84;5066511;28;20040;-59
2022/02/14 12:33:01;;;;;;;475.70;250.57;;;;;;;6.37;64.98;98284.00;5063579;28;20696;-56
2022/02/14 12:35:31;;;;;;;475.00;257.03;;;;;;;6.37;64.20;98276.38;5062894;28;20981;-59
2022/02/14 12:37:57;;;;;;;478.83;251.43;;;;;;;6.35;63.76;98280.66;5066993;28;20721;-59
2022/02/14 12:40:23;;;;;;;479.63;252.23;;;;;;;6.47;63.53;98282.25;5065797;28;20259;-60
2022/02/14 12:42:48;;;;;;;476.77;258.20;;;;;;;6.56;63.42;98269.44;5063084;28;20393;-55
2022/02/14 12:45:16;;;;;;;480.57;263.33;;;;;;;6.49;62.96;98282.25;5065239;28;20036;-60
2022/02/14 12:47:42;;;;;;;475.43;253.13;;;;;;;6.61;62.99;98272.78;5066072;28;20056;-58
2022/02/14 12:50:11;;;;;;;479.63;264.23;;;;;;;6.66;62.95;98280.38;5063760;28;20076;-58
2022/02/14 12:52:42;;;;;;;478.87;263.60;;;;;;;6.80;62.74;98276.00;5060261;28;20041;-58
2022/02/14 12:55:08;;;;;;;484.07;269.70;;;;;;;6.82;61.74;98267.50;5061820;28;20490;-59
2022/02/14 12:57:36;;;;;;;483.30;274.50;;;;;;;6.77;61.96;98269.22;5064326;28;20032;-58
2022/02/14 13:00:23;;;;;;;485.30;274.77;;;;;;;6.77;61.28;98258.19;5063203;28;20035;-56
2022/02/14 13:03:01;;;;;;;480.27;267.80;;;;;;;6.81;61.05;98265.78;5060380;28;20076;-59
2022/02/14 13:05:27;;;;;;;480.13;269.07;;;;;;;6.88;59.82;98262.31;5060800;28;20307;-57
2022/02/14 13:07:53;;;;;;;481.57;271.20;;;;;;;6.93;60.00;98257.16;5060505;28;20040;-58
2022/02/14 13:10:20;;;;;;;478.30;266.00;;;;;;;6.95;57.97;98244.44;5064018;28;20064;-60
2022/02/14 13:12:46;;;;;;;485.20;276.57;;;;;;;7.08;57.85;98241.72;5061645;28;20025;-59
2022/02/14 13:15:13;;;;;;;481.87;274.80;;;;;;;7.16;57.89;98242.47;5060241;28;20458;-56
2022/02/14 13:17:38;;;;;;;481.97;274.07;;;;;;;7.26;59.25;98238.94;5062023;28;20052;-60
2022/02/14 13:20:06;;;;;;;485.73;290.03;;;;;;;7.40;56.77;98235.38;5066162;28;20040;-58
2022/02/14 13:22:38;;;;;;;484.30;284.83;;;;;;;7.46;55.82;98228.50;5063514;28;20105;-59
2022/02/14 13:25:19;;;;;;;483.90;284.87;;;;;;;7.41;55.10;98224.31;5060173;28;20048;-58
2022/02/14 13:27:49;;;;;;;482.50;281.37;;;;;;;7.40;55.01;98223.47;5058755;28;20050;-56
2022/02/14 13:30:17;;;;;;;482.97;282.77;;;;;;;7.50;54.10;98229.31;5064127;28;20063;-58
2022/02/14 13:32:45;;;;;;;484.60;290.63;;;;;;;7.49;54.59;98231.00;5061683;28;20068;-57
2022/02/14 13:35:12;;;;;;;484.30;292.20;;;;;;;7.52;54.70;98225.00;5058528;28;20486;-59
2022/02/14 13:37:58;;;;;;;487.40;299.70;;;;;;;7.43;53.63;98227.69;5060797;28;20036;-60
2022/02/14 13:40:23;;;;;;;;;;;;;;;7.42;53.75;98223.47;5065088;28;20032;-58
2022/02/14 13:42:50;;;;;;;479.33;274.60;;;;;;;7.40;53.80;98227.72;5062332;28;19970;-56
2022/02/14 13:45:17;;;;;;;482.90;282.73;;;;;;;7.47;53.47;98221.72;5061001;28;20130;-58
2022/02/14 13:47:42;;;;;;;483.80;287.87;;;;;;;7.48;53.53;98224.22;5062925;28;20055;-58
2022/02/14 13:50:28;;;;;;;483.93;291.87;;;;;;;7.50;53.51;98216.56;5065159;28;20442;-58
2022/02/14 13:52:54;;;;;;;;;;;;;;;7.49;53.47;98214.88;5061845;28;20036;-58
2022/02/14 13:55:29;;;;;;;480.27;274.90;;;;;;;7.58;52.76;98207.09;5062880;28;19926;-58
2022/02/14 13:57:55;;;;;;;485.93;291.03;;;;;;;7.51;52.81;98202.94;5064173;28;20044;-58
2022/02/14 14:00:40;;;;;;;485.17;303.40;;;;;;;7.54;52.91;98208.00;5064271;28;20398;-56
2022/02/14 14:03:09;;;;;;;485.42;292.05;;;;;;;7.60;52.54;98206.19;5060743;28;20041;-58
2022/02/14 14:05:40;;;;;;;486.03;295.27;;;;;;;7.51;52.12;98208.06;5063245;28;20674;-58
2022/02/14 14:08:08;;;;;;;488.43;310.43;;;;;;;7.48;52.55;98201.25;5064821;28;20045;-59
2022/02/14 14:10:41;;;;;;;488.77;308.73;;;;;;;7.58;52.93;98205.38;5065264;28;20048;-59
2022/02/14 14:13:09;;;;;;;484.93;302.43;;;;;;;7.58;52.17;98196.88;5062043;28;20036;-58
2022/02/14 14:15:35;;;;;;;488.60;316.27;;;;;;;7.54;51.91;98185.88;5064151;28;20037;-59
2022/02/14 14:18:01;;;;;;;488.00;310.83;;;;;;;7.50;51.55;98181.69;5044066;28;20060;-60
2022/02/14 14:20:26;;;;;;;489.20;316.37;;;;;;;7.68;50.93;98188.25;5061796;28;20136;-55
2022/02/14 14:22:53;;;;;;;485.00;302.60;;;;;;;7.61;51.40;98187.47;5062134;28;20032;-60
2022/02/14 14:25:18;;;;;;;489.53;310.27;;;;;;;7.63;50.34;98178.09;5063714;28;20037;-59
2022/02/14 14:27:47;;;;;;;487.90;317.23;;;;;;;7.54;50.66;98179.94;5065812;28;20114;-60
2022/02/14 14:30:14;;;;;;;488.13;308.23;;;;;;;7.61;50.54;98176.44;5062387;28;20123;-59
2022/02/14 14:32:41;;;;;;;486.37;309.03;;;;;;;7.51;50.59;98167.25;5061326;28;20056;-57
2022/02/14 14:35:07;;;;;;;485.43;311.90;;;;;;;7.53;50.59;98170.59;5043148;28;20055;-57
2022/02/14 14:37:32;;;;;;;489.47;319.93;;;;;;;7.61;49.92;98166.22;5064511;28;20032;-59
2022/02/14 14:39:57;;;;;;;488.30;313.70;;;;;;;7.70;49.43;98166.94;5062174;28;20036;-59
2022/02/14 14:42:24;;;;;;;487.17;302.97;;;;;;;7.73;49.69;98169.44;5061478;28;20040;-59
2022/02/14 14:44:49;;;;;;;487.37;313.10;;;;;;;7.57;48.84;98167.97;5067795;28;20052;-59
2022/02/14 14:47:15;;;;;;;485.10;303.57;;;;;;;7.51;48.87;98162.13;5068124;28;20036;-59
2022/02/14 14:49:40;;;;;;;485.07;305.70;;;;;;;7.48;49.09;98163.00;5062529;28;20749;-59
2022/02/14 14:52:08;;;;;;;486.93;308.70;;;;;;;7.55;49.72;98156.97;5061538;28;20040;-59
2022/02/14 14:54:33;;;;;;;488.33;320.87;;;;;;;7.50;49.07;98151.09;5061151;28;20083;-59
2022/02/14 14:57:04;;;;;;;486.43;312.00;;;;;;;7.46;49.48;98153.72;5063698;28;20045;-58
2022/02/14 14:59:30;;;;;;;487.47;312.30;;;;;;;7.45;49.64;98149.47;5063246;28;20044;-58
2022/02/14 15:01:56;;;;;;;486.67;312.57;;;;;;;7.38;49.09;98150.44;5066165;28;20089;-59
2022/02/14 15:04:23;;;;;;;484.57;303.57;;;;;;;7.29;48.92;98148.84;5071043;28;20420;-58
2022/02/14 15:06:49;;;;;;;487.10;321.93;;;;;;;7.28;48.38;98147.16;5069092;28;20704;-59
2022/02/14 15:09:15;;;;;;;485.13;313.07;;;;;;;7.15;49.23;98143.06;5064746;28;20039;-59
2022/02/14 15:11:41;;;;;;;489.37;309.60;;;;;;;7.06;49.25;98144.03;5065320;28;20048;-59
2022/02/14 15:14:08;;;;;;;485.27;294.27;;;;;;;7.03;49.09;98149.19;5048628;28;20036;-60
2022/02/14 15:16:35;;;;;;;482.57;295.97;;;;;;;6.91;49.13;98143.41;5067201;28;20079;-59
2022/02/14 15:19:02;;;;;;;481.60;290.97;;;;;;;6.82;49.61;98146.91;5062331;28;20056;-59